sensor_id;sensor_type;location;lat;lon;timestamp;temperature;humidity
45685;DHT22;46836;48.388;16.210;2023-06-10T00:02:18;16.80;99.90
45685;DHT22;46836;48.388;16.210;2023-06-10T00:04:45;16.80;99.90
45685;DHT22;46836;48.388;16.210;2023-06-10T00:07:13;16.80;99.90
45685;DHT22;46836;48.388;16.210;2023-06-10T00:09:40;16.80;99.90
45685;DHT22;46836;48.388;16.210;2023-06-10T00:12:08;16.80;99.90
45685;DHT22;46836;48.388;16.210;2023-06-10T00:14:39;16.80;99.90
45685;DHT22;46836;48.388;16.210;2023-06-10T00:17:09;16.80;99.90
45685;DHT22;46836;48.388;16.210;2023-06-10T00:19:37;16.80;99.90
45685;DHT22;46836;48.388;16.210;2023-06-10T00:22:09;16.80;99.90
45685;DHT22;46836;48.388;16.210;2023-06-10T00:24:39;16.80;99.90
45685;DHT22;46836;48.388;16.210;2023-06-10T00:27:06;16.90;99.90
45685;DHT22;46836;48.388;16.210;2023-06-10T00:29:34;16.90;99.90
45685;DHT22;46836;48.388;16.210;2023-06-10T00:32:02;16.90;99.90
45685;DHT22;46836;48.388;16.210;2023-06-10T00:34:30;16.90;99.90
45685;DHT22;46836;48.388;16.210;2023-06-10T00:36:57;17.00;99.90
45685;DHT22;46836;48.388;16.210;2023-06-10T00:39:24;17.00;99.90
45685;DHT22;46836;48.388;16.210;2023-06-10T00:41:51;17.00;99.90
45685;DHT22;46836;48.388;16.210;2023-06-10T00:44:18;17.00;99.90
45685;DHT22;46836;48.388;16.210;2023-06-10T00:46:45;17.10;99.90
45685;DHT22;46836;48.388;16.210;2023-06-10T00:49:13;17.10;99.90
45685;DHT22;46836;48.388;16.210;2023-06-10T00:51:40;17.10;99.90
45685;DHT22;46836;48.388;16.210;2023-06-10T00:54:07;17.10;99.90
45685;DHT22;46836;48.388;16.210;2023-06-10T00:56:35;17.10;99.90
45685;DHT22;46836;48.388;16.210;2023-06-10T00:59:03;17.10;99.90
45685;DHT22;46836;48.388;16.210;2023-06-10T01:01:31;17.00;99.90
45685;DHT22;46836;48.388;16.210;2023-06-10T01:03:59;17.00;99.90
45685;DHT22;46836;48.388;16.210;2023-06-10T01:10:01;17.10;99.90
45685;DHT22;46836;48.388;16.210;2023-06-10T01:15:06;17.10;99.90
45685;DHT22;46836;48.388;16.210;2023-06-10T01:17:57;17.10;99.90
45685;DHT22;46836;48.388;16.210;2023-06-10T01:20:27;17.10;99.90
45685;DHT22;46836;48.388;16.210;2023-06-10T01:22:56;17.00;99.90
45685;DHT22;46836;48.388;16.210;2023-06-10T01:25:26;17.00;99.90
45685;DHT22;46836;48.388;16.210;2023-06-10T01:31:03;17.00;99.90
45685;DHT22;46836;48.388;16.210;2023-06-10T01:33:41;17.00;99.90
45685;DHT22;46836;48.388;16.210;2023-06-10T01:36:09;16.90;99.90
45685;DHT22;46836;48.388;16.210;2023-06-10T01:38:42;16.90;99.90
45685;DHT22;46836;48.388;16.210;2023-06-10T01:41:11;16.90;99.90
45685;DHT22;46836;48.388;16.210;2023-06-10T01:43:39;16.90;99.90
45685;DHT22;46836;48.388;16.210;2023-06-10T01:46:07;16.90;99.90
45685;DHT22;46836;48.388;16.210;2023-06-10T01:48:34;16.90;99.90
45685;DHT22;46836;48.388;16.210;2023-06-10T01:51:01;16.90;99.90
45685;DHT22;46836;48.388;16.210;2023-06-10T01:53:28;16.90;99.90
45685;DHT22;46836;48.388;16.210;2023-06-10T01:55:55;16.90;99.90
45685;DHT22;46836;48.388;16.210;2023-06-10T01:58:22;16.90;99.90
45685;DHT22;46836;48.388;16.210;2023-06-10T02:00:49;16.90;99.90
45685;DHT22;46836;48.388;16.210;2023-06-10T02:03:17;16.90;99.90
45685;DHT22;46836;48.388;16.210;2023-06-10T02:05:45;16.90;99.90
45685;DHT22;46836;48.388;16.210;2023-06-10T02:08:12;16.80;99.90
45685;DHT22;46836;48.388;16.210;2023-06-10T02:10:39;16.90;99.90
45685;DHT22;46836;48.388;16.210;2023-06-10T02:13:07;16.90;99.90
45685;DHT22;46836;48.388;16.210;2023-06-10T02:15:34;16.90;99.90
45685;DHT22;46836;48.388;16.210;2023-06-10T02:18:01;16.80;99.90
45685;DHT22;46836;48.388;16.210;2023-06-10T02:20:29;16.90;99.90
45685;DHT22;46836;48.388;16.210;2023-06-10T02:22:56;16.90;99.90
45685;DHT22;46836;48.388;16.210;2023-06-10T02:25:24;16.80;99.90
45685;DHT22;46836;48.388;16.210;2023-06-10T02:27:52;16.80;99.90
45685;DHT22;46836;48.388;16.210;2023-06-10T02:30:19;16.80;99.90
45685;DHT22;46836;48.388;16.210;2023-06-10T02:32:46;16.80;99.90
45685;DHT22;46836;48.388;16.210;2023-06-10T02:35:15;16.90;99.90
45685;DHT22;46836;48.388;16.210;2023-06-10T02:37:43;16.80;99.90
45685;DHT22;46836;48.388;16.210;2023-06-10T02:40:11;16.80;99.90
45685;DHT22;46836;48.388;16.210;2023-06-10T02:42:38;16.80;99.90
45685;DHT22;46836;48.388;16.210;2023-06-10T02:45:06;16.90;99.90
45685;DHT22;46836;48.388;16.210;2023-06-10T02:47:33;16.80;99.90
45685;DHT22;46836;48.388;16.210;2023-06-10T02:50:01;16.80;99.90
45685;DHT22;46836;48.388;16.210;2023-06-10T02:52:28;16.80;99.90
45685;DHT22;46836;48.388;16.210;2023-06-10T02:54:55;16.90;99.90
45685;DHT22;46836;48.388;16.210;2023-06-10T02:57:22;16.80;99.90
45685;DHT22;46836;48.388;16.210;2023-06-10T02:59:49;16.80;99.90
45685;DHT22;46836;48.388;16.210;2023-06-10T03:02:17;16.80;99.90
45685;DHT22;46836;48.388;16.210;2023-06-10T03:04:45;16.90;99.90
45685;DHT22;46836;48.388;16.210;2023-06-10T03:07:12;16.90;99.90
45685;DHT22;46836;48.388;16.210;2023-06-10T03:09:39;16.90;99.90
45685;DHT22;46836;48.388;16.210;2023-06-10T03:12:09;16.90;99.90
45685;DHT22;46836;48.388;16.210;2023-06-10T03:14:37;16.80;99.90
45685;DHT22;46836;48.388;16.210;2023-06-10T03:17:05;16.80;99.90
45685;DHT22;46836;48.388;16.210;2023-06-10T03:19:33;16.90;99.90
45685;DHT22;46836;48.388;16.210;2023-06-10T03:22:11;16.90;99.90
45685;DHT22;46836;48.388;16.210;2023-06-10T03:24:38;16.90;99.90
45685;DHT22;46836;48.388;16.210;2023-06-10T03:27:07;16.90;99.90
45685;DHT22;46836;48.388;16.210;2023-06-10T03:29:35;17.00;99.90
45685;DHT22;46836;48.388;16.210;2023-06-10T03:32:03;17.00;99.90
45685;DHT22;46836;48.388;16.210;2023-06-10T03:34:30;17.00;99.90
45685;DHT22;46836;48.388;16.210;2023-06-10T03:36:57;17.10;99.90
45685;DHT22;46836;48.388;16.210;2023-06-10T03:39:26;17.10;99.90
45685;DHT22;46836;48.388;16.210;2023-06-10T03:41:56;17.20;99.90
45685;DHT22;46836;48.388;16.210;2023-06-10T03:44:27;17.20;99.90
45685;DHT22;46836;48.388;16.210;2023-06-10T03:46:55;17.20;99.90
45685;DHT22;46836;48.388;16.210;2023-06-10T03:49:23;17.20;99.90
45685;DHT22;46836;48.388;16.210;2023-06-10T03:51:53;17.30;99.90
45685;DHT22;46836;48.388;16.210;2023-06-10T03:54:21;17.30;99.90
45685;DHT22;46836;48.388;16.210;2023-06-10T03:56:48;17.40;99.90
45685;DHT22;46836;48.388;16.210;2023-06-10T03:59:15;17.40;99.90
45685;DHT22;46836;48.388;16.210;2023-06-10T04:01:43;17.40;99.90
45685;DHT22;46836;48.388;16.210;2023-06-10T04:04:15;17.40;99.90
45685;DHT22;46836;48.388;16.210;2023-06-10T04:06:45;17.50;99.90
45685;DHT22;46836;48.388;16.210;2023-06-10T04:09:13;17.50;99.90
45685;DHT22;46836;48.388;16.210;2023-06-10T04:11:40;17.50;99.90
45685;DHT22;46836;48.388;16.210;2023-06-10T04:14:08;17.50;99.90
45685;DHT22;46836;48.388;16.210;2023-06-10T04:16:35;17.50;99.90
45685;DHT22;46836;48.388;16.210;2023-06-10T04:19:02;17.50;99.90
45685;DHT22;46836;48.388;16.210;2023-06-10T04:21:29;17.50;99.90
45685;DHT22;46836;48.388;16.210;2023-06-10T04:23:56;17.50;99.90
45685;DHT22;46836;48.388;16.210;2023-06-10T04:26:23;17.60;99.90
45685;DHT22;46836;48.388;16.210;2023-06-10T04:28:50;17.60;99.90
45685;DHT22;46836;48.388;16.210;2023-06-10T04:31:18;17.60;99.90
45685;DHT22;46836;48.388;16.210;2023-06-10T04:33:45;17.60;99.90
45685;DHT22;46836;48.388;16.210;2023-06-10T04:36:12;17.70;99.90
45685;DHT22;46836;48.388;16.210;2023-06-10T04:38:39;17.70;99.90
45685;DHT22;46836;48.388;16.210;2023-06-10T04:41:07;17.80;99.90
45685;DHT22;46836;48.388;16.210;2023-06-10T04:43:34;17.80;99.90
45685;DHT22;46836;48.388;16.210;2023-06-10T04:46:01;17.90;99.90
45685;DHT22;46836;48.388;16.210;2023-06-10T04:48:29;17.90;99.90
45685;DHT22;46836;48.388;16.210;2023-06-10T04:50:58;18.00;99.90
45685;DHT22;46836;48.388;16.210;2023-06-10T04:53:25;18.00;99.90
45685;DHT22;46836;48.388;16.210;2023-06-10T04:55:53;18.00;99.90
45685;DHT22;46836;48.388;16.210;2023-06-10T04:58:20;18.00;99.90
45685;DHT22;46836;48.388;16.210;2023-06-10T05:00:47;18.10;99.90
45685;DHT22;46836;48.388;16.210;2023-06-10T05:03:14;18.10;99.90
45685;DHT22;46836;48.388;16.210;2023-06-10T05:05:41;18.10;99.90
45685;DHT22;46836;48.388;16.210;2023-06-10T05:08:08;18.10;99.90
45685;DHT22;46836;48.388;16.210;2023-06-10T05:10:35;18.20;99.90
45685;DHT22;46836;48.388;16.210;2023-06-10T05:13:03;18.10;99.90
45685;DHT22;46836;48.388;16.210;2023-06-10T05:15:30;18.20;99.90
45685;DHT22;46836;48.388;16.210;2023-06-10T05:17:58;18.20;99.90
45685;DHT22;46836;48.388;16.210;2023-06-10T05:20:25;18.20;99.90
45685;DHT22;46836;48.388;16.210;2023-06-10T05:22:53;18.20;99.90
45685;DHT22;46836;48.388;16.210;2023-06-10T05:25:20;18.20;99.90
45685;DHT22;46836;48.388;16.210;2023-06-10T05:27:48;18.20;99.90
45685;DHT22;46836;48.388;16.210;2023-06-10T05:30:15;18.20;99.90
45685;DHT22;46836;48.388;16.210;2023-06-10T05:32:43;18.20;99.90
45685;DHT22;46836;48.388;16.210;2023-06-10T05:35:10;18.30;99.90
45685;DHT22;46836;48.388;16.210;2023-06-10T05:37:38;18.40;99.90
45685;DHT22;46836;48.388;16.210;2023-06-10T05:40:05;18.40;99.90
45685;DHT22;46836;48.388;16.210;2023-06-10T05:42:33;18.40;99.90
45685;DHT22;46836;48.388;16.210;2023-06-10T05:45:00;18.40;99.90
45685;DHT22;46836;48.388;16.210;2023-06-10T05:47:28;18.50;99.90
45685;DHT22;46836;48.388;16.210;2023-06-10T05:49:55;18.50;99.90
45685;DHT22;46836;48.388;16.210;2023-06-10T05:52:22;18.70;99.90
45685;DHT22;46836;48.388;16.210;2023-06-10T05:54:50;18.70;99.90
45685;DHT22;46836;48.388;16.210;2023-06-10T05:57:17;18.80;99.90
45685;DHT22;46836;48.388;16.210;2023-06-10T05:59:44;18.90;99.90
45685;DHT22;46836;48.388;16.210;2023-06-10T06:02:11;19.00;99.90
45685;DHT22;46836;48.388;16.210;2023-06-10T06:04:38;19.00;99.90
45685;DHT22;46836;48.388;16.210;2023-06-10T06:07:06;19.00;99.90
45685;DHT22;46836;48.388;16.210;2023-06-10T06:09:33;19.10;99.90
45685;DHT22;46836;48.388;16.210;2023-06-10T06:12:00;19.10;99.90
45685;DHT22;46836;48.388;16.210;2023-06-10T06:14:30;19.10;99.90
45685;DHT22;46836;48.388;16.210;2023-06-10T06:16:59;19.10;99.90
45685;DHT22;46836;48.388;16.210;2023-06-10T06:19:26;19.00;99.90
45685;DHT22;46836;48.388;16.210;2023-06-10T06:21:53;19.00;99.90
45685;DHT22;46836;48.388;16.210;2023-06-10T06:24:20;19.00;99.90
45685;DHT22;46836;48.388;16.210;2023-06-10T06:26:47;19.00;99.90
45685;DHT22;46836;48.388;16.210;2023-06-10T06:29:14;19.00;99.90
45685;DHT22;46836;48.388;16.210;2023-06-10T06:31:41;18.90;99.90
45685;DHT22;46836;48.388;16.210;2023-06-10T06:34:09;19.00;99.90
45685;DHT22;46836;48.388;16.210;2023-06-10T06:36:36;19.00;99.90
45685;DHT22;46836;48.388;16.210;2023-06-10T06:39:03;19.10;99.90
45685;DHT22;46836;48.388;16.210;2023-06-10T06:41:30;19.30;99.90
45685;DHT22;46836;48.388;16.210;2023-06-10T06:43:57;19.50;99.90
45685;DHT22;46836;48.388;16.210;2023-06-10T06:46:24;19.50;99.90
45685;DHT22;46836;48.388;16.210;2023-06-10T06:48:52;19.50;99.90
45685;DHT22;46836;48.388;16.210;2023-06-10T06:51:19;19.50;99.90
45685;DHT22;46836;48.388;16.210;2023-06-10T06:53:46;19.60;99.90
45685;DHT22;46836;48.388;16.210;2023-06-10T06:56:14;19.60;99.90
45685;DHT22;46836;48.388;16.210;2023-06-10T06:58:41;19.60;99.90
45685;DHT22;46836;48.388;16.210;2023-06-10T07:01:08;19.60;99.90
45685;DHT22;46836;48.388;16.210;2023-06-10T07:03:35;19.60;99.90
45685;DHT22;46836;48.388;16.210;2023-06-10T07:06:02;19.60;99.90
45685;DHT22;46836;48.388;16.210;2023-06-10T07:08:30;19.50;99.90
45685;DHT22;46836;48.388;16.210;2023-06-10T07:10:57;19.50;99.90
45685;DHT22;46836;48.388;16.210;2023-06-10T07:13:24;19.40;99.90
45685;DHT22;46836;48.388;16.210;2023-06-10T07:15:51;19.40;99.90
45685;DHT22;46836;48.388;16.210;2023-06-10T07:18:18;19.50;99.90
45685;DHT22;46836;48.388;16.210;2023-06-10T07:20:45;19.50;99.90
45685;DHT22;46836;48.388;16.210;2023-06-10T07:23:12;19.60;99.90
45685;DHT22;46836;48.388;16.210;2023-06-10T07:25:41;19.60;99.90
45685;DHT22;46836;48.388;16.210;2023-06-10T07:28:08;19.60;99.90
45685;DHT22;46836;48.388;16.210;2023-06-10T07:30:35;19.60;99.90
45685;DHT22;46836;48.388;16.210;2023-06-10T07:33:03;19.60;99.90
45685;DHT22;46836;48.388;16.210;2023-06-10T07:35:30;19.50;99.90
45685;DHT22;46836;48.388;16.210;2023-06-10T07:37:57;19.60;99.90
45685;DHT22;46836;48.388;16.210;2023-06-10T07:40:24;19.60;99.90
45685;DHT22;46836;48.388;16.210;2023-06-10T07:42:51;19.60;99.90
45685;DHT22;46836;48.388;16.210;2023-06-10T07:45:19;19.60;99.90
45685;DHT22;46836;48.388;16.210;2023-06-10T07:47:46;19.60;99.90
45685;DHT22;46836;48.388;16.210;2023-06-10T07:50:14;19.60;99.90
45685;DHT22;46836;48.388;16.210;2023-06-10T07:52:41;19.60;99.90
45685;DHT22;46836;48.388;16.210;2023-06-10T07:55:08;19.60;99.90
45685;DHT22;46836;48.388;16.210;2023-06-10T07:57:36;19.60;99.90
45685;DHT22;46836;48.388;16.210;2023-06-10T08:00:06;19.80;99.90
45685;DHT22;46836;48.388;16.210;2023-06-10T08:02:33;19.80;99.90
45685;DHT22;46836;48.388;16.210;2023-06-10T08:05:00;19.80;99.90
45685;DHT22;46836;48.388;16.210;2023-06-10T08:07:28;19.90;99.90
45685;DHT22;46836;48.388;16.210;2023-06-10T08:09:55;20.00;99.90
45685;DHT22;46836;48.388;16.210;2023-06-10T08:12:22;20.10;99.90
45685;DHT22;46836;48.388;16.210;2023-06-10T08:14:49;20.10;99.90
45685;DHT22;46836;48.388;16.210;2023-06-10T08:17:16;20.10;99.90
45685;DHT22;46836;48.388;16.210;2023-06-10T08:19:43;20.10;99.90
45685;DHT22;46836;48.388;16.210;2023-06-10T08:22:10;20.10;99.90
45685;DHT22;46836;48.388;16.210;2023-06-10T08:24:37;20.10;99.90
45685;DHT22;46836;48.388;16.210;2023-06-10T08:27:05;20.10;99.90
45685;DHT22;46836;48.388;16.210;2023-06-10T08:29:33;20.10;99.90
45685;DHT22;46836;48.388;16.210;2023-06-10T08:32:00;20.20;99.90
45685;DHT22;46836;48.388;16.210;2023-06-10T08:34:27;20.20;99.90
45685;DHT22;46836;48.388;16.210;2023-06-10T08:36:54;20.30;99.90
45685;DHT22;46836;48.388;16.210;2023-06-10T08:39:23;20.20;99.90
45685;DHT22;46836;48.388;16.210;2023-06-10T08:42:13;20.30;99.90
45685;DHT22;46836;48.388;16.210;2023-06-10T08:44:42;20.30;99.90
45685;DHT22;46836;48.388;16.210;2023-06-10T08:47:14;20.30;99.90
45685;DHT22;46836;48.388;16.210;2023-06-10T08:49:48;20.30;99.90
45685;DHT22;46836;48.388;16.210;2023-06-10T08:52:19;20.20;99.90
45685;DHT22;46836;48.388;16.210;2023-06-10T08:54:58;20.20;99.90
45685;DHT22;46836;48.388;16.210;2023-06-10T08:57:27;20.30;99.90
45685;DHT22;46836;48.388;16.210;2023-06-10T08:59:55;20.40;99.90
45685;DHT22;46836;48.388;16.210;2023-06-10T09:02:24;20.50;99.90
45685;DHT22;46836;48.388;16.210;2023-06-10T09:04:51;20.70;99.90
45685;DHT22;46836;48.388;16.210;2023-06-10T09:07:19;20.80;99.90
45685;DHT22;46836;48.388;16.210;2023-06-10T09:09:48;20.90;99.90
45685;DHT22;46836;48.388;16.210;2023-06-10T09:12:15;21.00;99.90
45685;DHT22;46836;48.388;16.210;2023-06-10T09:14:43;21.20;99.90
45685;DHT22;46836;48.388;16.210;2023-06-10T09:17:10;21.40;99.90
45685;DHT22;46836;48.388;16.210;2023-06-10T09:19:39;21.60;99.90
45685;DHT22;46836;48.388;16.210;2023-06-10T09:22:07;21.80;99.90
45685;DHT22;46836;48.388;16.210;2023-06-10T09:24:34;21.80;99.90
45685;DHT22;46836;48.388;16.210;2023-06-10T09:27:06;21.90;99.90
45685;DHT22;46836;48.388;16.210;2023-06-10T09:32:19;22.40;99.90
45685;DHT22;46836;48.388;16.210;2023-06-10T09:34:47;22.40;99.90
45685;DHT22;46836;48.388;16.210;2023-06-10T09:37:20;22.50;99.90
45685;DHT22;46836;48.388;16.210;2023-06-10T09:40:04;22.60;99.90
45685;DHT22;46836;48.388;16.210;2023-06-10T09:42:34;22.50;99.90
45685;DHT22;46836;48.388;16.210;2023-06-10T09:45:06;22.50;99.90
45685;DHT22;46836;48.388;16.210;2023-06-10T09:47:34;22.50;99.90
45685;DHT22;46836;48.388;16.210;2023-06-10T09:50:01;22.70;99.90
45685;DHT22;46836;48.388;16.210;2023-06-10T09:52:29;22.70;99.90
45685;DHT22;46836;48.388;16.210;2023-06-10T09:55:01;22.80;99.90
45685;DHT22;46836;48.388;16.210;2023-06-10T09:57:32;22.90;99.90
45685;DHT22;46836;48.388;16.210;2023-06-10T10:00:07;23.10;99.90
45685;DHT22;46836;48.388;16.210;2023-06-10T10:02:52;23.10;99.90
45685;DHT22;46836;48.388;16.210;2023-06-10T10:05:21;23.10;99.90
45685;DHT22;46836;48.388;16.210;2023-06-10T10:07:50;23.00;99.90
45685;DHT22;46836;48.388;16.210;2023-06-10T10:10:19;22.80;99.90
45685;DHT22;46836;48.388;16.210;2023-06-10T10:12:48;22.70;99.90
45685;DHT22;46836;48.388;16.210;2023-06-10T10:15:17;22.60;99.90
45685;DHT22;46836;48.388;16.210;2023-06-10T10:18:00;22.70;99.90
45685;DHT22;46836;48.388;16.210;2023-06-10T10:20:31;22.80;99.90
45685;DHT22;46836;48.388;16.210;2023-06-10T10:22:59;23.00;99.90
45685;DHT22;46836;48.388;16.210;2023-06-10T10:25:37;23.30;99.90
45685;DHT22;46836;48.388;16.210;2023-06-10T10:28:09;23.60;99.90
45685;DHT22;46836;48.388;16.210;2023-06-10T10:30:49;23.90;99.90
45685;DHT22;46836;48.388;16.210;2023-06-10T10:36:24;23.90;99.90
45685;DHT22;46836;48.388;16.210;2023-06-10T10:38:52;23.90;99.90
45685;DHT22;46836;48.388;16.210;2023-06-10T10:41:20;23.90;99.90
45685;DHT22;46836;48.388;16.210;2023-06-10T10:43:48;23.80;99.90
45685;DHT22;46836;48.388;16.210;2023-06-10T10:46:18;23.80;99.90
45685;DHT22;46836;48.388;16.210;2023-06-10T10:48:46;23.90;99.90
45685;DHT22;46836;48.388;16.210;2023-06-10T10:51:17;23.80;99.90
45685;DHT22;46836;48.388;16.210;2023-06-10T10:54:11;23.80;99.90
45685;DHT22;46836;48.388;16.210;2023-06-10T10:56:39;23.90;99.90
45685;DHT22;46836;48.388;16.210;2023-06-10T10:59:07;24.00;99.90
45685;DHT22;46836;48.388;16.210;2023-06-10T11:01:44;23.90;99.90
45685;DHT22;46836;48.388;16.210;2023-06-10T11:04:13;23.90;99.90
45685;DHT22;46836;48.388;16.210;2023-06-10T11:06:54;23.90;99.90
45685;DHT22;46836;48.388;16.210;2023-06-10T11:09:28;23.90;99.90
45685;DHT22;46836;48.388;16.210;2023-06-10T11:11:59;24.00;99.90
45685;DHT22;46836;48.388;16.210;2023-06-10T11:14:30;24.10;99.90
45685;DHT22;46836;48.388;16.210;2023-06-10T11:16:58;24.10;99.90
45685;DHT22;46836;48.388;16.210;2023-06-10T11:19:36;24.00;99.90
45685;DHT22;46836;48.388;16.210;2023-06-10T11:22:09;24.00;99.90
45685;DHT22;46836;48.388;16.210;2023-06-10T11:24:47;23.90;99.90
45685;DHT22;46836;48.388;16.210;2023-06-10T11:27:16;23.80;99.90
45685;DHT22;46836;48.388;16.210;2023-06-10T11:32:34;23.70;99.90
45685;DHT22;46836;48.388;16.210;2023-06-10T11:35:05;23.50;99.90
45685;DHT22;46836;48.388;16.210;2023-06-10T11:37:35;23.20;99.90
45685;DHT22;46836;48.388;16.210;2023-06-10T11:40:03;22.70;99.90
45685;DHT22;46836;48.388;16.210;2023-06-10T11:42:30;22.30;99.90
45685;DHT22;46836;48.388;16.210;2023-06-10T11:44:58;22.00;99.90
45685;DHT22;46836;48.388;16.210;2023-06-10T11:47:25;21.90;99.90
45685;DHT22;46836;48.388;16.210;2023-06-10T11:49:57;21.90;99.90
45685;DHT22;46836;48.388;16.210;2023-06-10T11:52:31;22.10;99.90
45685;DHT22;46836;48.388;16.210;2023-06-10T11:55:06;22.20;99.90
45685;DHT22;46836;48.388;16.210;2023-06-10T11:57:37;22.40;99.90
45685;DHT22;46836;48.388;16.210;2023-06-10T12:00:06;22.60;99.90
45685;DHT22;46836;48.388;16.210;2023-06-10T12:02:34;22.80;99.90
45685;DHT22;46836;48.388;16.210;2023-06-10T12:05:14;23.00;99.90
45685;DHT22;46836;48.388;16.210;2023-06-10T12:07:41;23.10;99.90
45685;DHT22;46836;48.388;16.210;2023-06-10T12:10:09;23.10;99.90
45685;DHT22;46836;48.388;16.210;2023-06-10T12:12:53;23.30;99.90
45685;DHT22;46836;48.388;16.210;2023-06-10T12:15:26;23.60;99.90
45685;DHT22;46836;48.388;16.210;2023-06-10T12:17:53;23.90;99.90
45685;DHT22;46836;48.388;16.210;2023-06-10T12:20:26;24.10;99.90
45685;DHT22;46836;48.388;16.210;2023-06-10T12:22:54;24.10;99.90
45685;DHT22;46836;48.388;16.210;2023-06-10T12:25:26;24.00;99.90
45685;DHT22;46836;48.388;16.210;2023-06-10T12:27:56;23.80;99.90
45685;DHT22;46836;48.388;16.210;2023-06-10T12:30:27;23.50;99.90
45685;DHT22;46836;48.388;16.210;2023-06-10T12:32:55;23.30;99.90
45685;DHT22;46836;48.388;16.210;2023-06-10T12:35:27;23.20;99.90
45685;DHT22;46836;48.388;16.210;2023-06-10T12:37:59;23.00;99.90
45685;DHT22;46836;48.388;16.210;2023-06-10T12:40:38;22.90;99.90
45685;DHT22;46836;48.388;16.210;2023-06-10T12:43:09;22.90;99.90
45685;DHT22;46836;48.388;16.210;2023-06-10T12:45:38;22.90;99.90
45685;DHT22;46836;48.388;16.210;2023-06-10T12:48:18;22.80;99.90
45685;DHT22;46836;48.388;16.210;2023-06-10T12:50:51;22.70;99.90
45685;DHT22;46836;48.388;16.210;2023-06-10T12:53:20;22.70;99.90
45685;DHT22;46836;48.388;16.210;2023-06-10T12:55:47;22.50;99.90
45685;DHT22;46836;48.388;16.210;2023-06-10T12:58:15;22.40;99.90
45685;DHT22;46836;48.388;16.210;2023-06-10T13:00:42;22.40;99.90
45685;DHT22;46836;48.388;16.210;2023-06-10T13:03:10;22.60;99.90
45685;DHT22;46836;48.388;16.210;2023-06-10T13:05:37;22.70;99.90
45685;DHT22;46836;48.388;16.210;2023-06-10T13:08:07;22.90;99.90
45685;DHT22;46836;48.388;16.210;2023-06-10T13:10:34;22.90;99.90
45685;DHT22;46836;48.388;16.210;2023-06-10T13:13:02;22.80;99.90
45685;DHT22;46836;48.388;16.210;2023-06-10T13:15:33;22.80;99.90
45685;DHT22;46836;48.388;16.210;2023-06-10T13:18:08;22.90;99.90
45685;DHT22;46836;48.388;16.210;2023-06-10T13:20:36;23.00;99.90
45685;DHT22;46836;48.388;16.210;2023-06-10T13:23:03;23.10;99.90
45685;DHT22;46836;48.388;16.210;2023-06-10T13:25:30;23.20;99.90
45685;DHT22;46836;48.388;16.210;2023-06-10T13:27:57;23.30;99.90
45685;DHT22;46836;48.388;16.210;2023-06-10T13:30:24;23.30;99.90
45685;DHT22;46836;48.388;16.210;2023-06-10T13:32:53;23.30;99.90
45685;DHT22;46836;48.388;16.210;2023-06-10T13:35:20;23.30;99.90
45685;DHT22;46836;48.388;16.210;2023-06-10T13:37:47;23.20;99.90
45685;DHT22;46836;48.388;16.210;2023-06-10T13:40:14;23.20;99.90
45685;DHT22;46836;48.388;16.210;2023-06-10T13:42:42;23.20;99.90
45685;DHT22;46836;48.388;16.210;2023-06-10T13:45:09;23.20;99.90
45685;DHT22;46836;48.388;16.210;2023-06-10T13:47:37;23.10;99.90
45685;DHT22;46836;48.388;16.210;2023-06-10T13:50:06;23.00;99.90
45685;DHT22;46836;48.388;16.210;2023-06-10T13:52:34;22.90;99.90
45685;DHT22;46836;48.388;16.210;2023-06-10T13:55:01;22.80;99.90
45685;DHT22;46836;48.388;16.210;2023-06-10T13:57:28;22.80;99.90
45685;DHT22;46836;48.388;16.210;2023-06-10T13:59:55;22.80;99.90
45685;DHT22;46836;48.388;16.210;2023-06-10T14:02:23;22.90;99.90
45685;DHT22;46836;48.388;16.210;2023-06-10T14:04:50;22.90;99.90
45685;DHT22;46836;48.388;16.210;2023-06-10T14:07:17;23.00;99.90
45685;DHT22;46836;48.388;16.210;2023-06-10T14:09:45;23.30;99.90
45685;DHT22;46836;48.388;16.210;2023-06-10T14:12:12;23.40;99.90
45685;DHT22;46836;48.388;16.210;2023-06-10T14:14:39;23.60;99.90
45685;DHT22;46836;48.388;16.210;2023-06-10T14:17:06;23.50;99.90
45685;DHT22;46836;48.388;16.210;2023-06-10T14:19:34;23.60;99.90
45685;DHT22;46836;48.388;16.210;2023-06-10T14:22:01;23.50;99.90
45685;DHT22;46836;48.388;16.210;2023-06-10T14:24:30;23.60;99.90
45685;DHT22;46836;48.388;16.210;2023-06-10T14:26:58;23.60;99.90
45685;DHT22;46836;48.388;16.210;2023-06-10T14:29:25;23.70;99.90
45685;DHT22;46836;48.388;16.210;2023-06-10T14:31:55;23.80;99.90
45685;DHT22;46836;48.388;16.210;2023-06-10T14:34:23;24.00;99.90
45685;DHT22;46836;48.388;16.210;2023-06-10T14:36:55;24.20;99.90
45685;DHT22;46836;48.388;16.210;2023-06-10T14:39:22;24.30;99.90
45685;DHT22;46836;48.388;16.210;2023-06-10T14:41:49;24.20;99.90
45685;DHT22;46836;48.388;16.210;2023-06-10T14:44:16;24.20;99.90
45685;DHT22;46836;48.388;16.210;2023-06-10T14:46:43;24.10;99.90
45685;DHT22;46836;48.388;16.210;2023-06-10T14:49:10;24.10;99.90
45685;DHT22;46836;48.388;16.210;2023-06-10T14:51:38;24.10;99.90
45685;DHT22;46836;48.388;16.210;2023-06-10T14:54:05;23.90;99.90
45685;DHT22;46836;48.388;16.210;2023-06-10T14:56:32;23.80;99.90
45685;DHT22;46836;48.388;16.210;2023-06-10T14:58:59;23.60;99.90
45685;DHT22;46836;48.388;16.210;2023-06-10T15:01:26;23.40;99.90
45685;DHT22;46836;48.388;16.210;2023-06-10T15:03:53;23.30;99.90
45685;DHT22;46836;48.388;16.210;2023-06-10T15:06:20;23.10;99.90
45685;DHT22;46836;48.388;16.210;2023-06-10T15:08:47;22.90;99.90
45685;DHT22;46836;48.388;16.210;2023-06-10T15:11:17;22.70;99.90
45685;DHT22;46836;48.388;16.210;2023-06-10T15:13:44;22.60;99.90
45685;DHT22;46836;48.388;16.210;2023-06-10T15:16:11;22.50;99.90
45685;DHT22;46836;48.388;16.210;2023-06-10T15:18:38;22.30;99.90
45685;DHT22;46836;48.388;16.210;2023-06-10T15:21:05;22.20;99.90
45685;DHT22;46836;48.388;16.210;2023-06-10T15:23:32;22.10;99.90
45685;DHT22;46836;48.388;16.210;2023-06-10T15:25:59;22.10;99.90
45685;DHT22;46836;48.388;16.210;2023-06-10T15:28:26;22.00;99.90
45685;DHT22;46836;48.388;16.210;2023-06-10T15:30:54;22.00;99.90
45685;DHT22;46836;48.388;16.210;2023-06-10T15:33:22;22.10;99.90
45685;DHT22;46836;48.388;16.210;2023-06-10T15:35:49;22.10;99.90
45685;DHT22;46836;48.388;16.210;2023-06-10T15:38:16;22.10;99.90
45685;DHT22;46836;48.388;16.210;2023-06-10T15:40:43;22.10;99.90
45685;DHT22;46836;48.388;16.210;2023-06-10T15:43:10;22.10;99.90